sensor_id;sensor_type;location;lat;lon;timestamp;temperature;humidity
13268;DHT22;6702;47.068;15.458;2023-03-23T00:02:58;11.70;79.20
13268;DHT22;6702;47.068;15.458;2023-03-23T00:06:02;11.70;79.70
13268;DHT22;6702;47.068;15.458;2023-03-23T00:09:07;11.80;80.20
13268;DHT22;6702;47.068;15.458;2023-03-23T00:12:09;11.70;80.10
13268;DHT22;6702;47.068;15.458;2023-03-23T00:15:16;11.70;80.50
13268;DHT22;6702;47.068;15.458;2023-03-23T00:18:20;11.70;80.70
13268;DHT22;6702;47.068;15.458;2023-03-23T00:21:23;11.60;81.20
13268;DHT22;6702;47.068;15.458;2023-03-23T00:24:34;11.50;81.30
13268;DHT22;6702;47.068;15.458;2023-03-23T00:27:37;11.60;81.90
13268;DHT22;6702;47.068;15.458;2023-03-23T00:30:39;11.50;82.00
13268;DHT22;6702;47.068;15.458;2023-03-23T00:33:44;11.40;82.50
13268;DHT22;6702;47.068;15.458;2023-03-23T00:36:47;11.40;82.90
13268;DHT22;6702;47.068;15.458;2023-03-23T00:39:49;11.40;83.30
13268;DHT22;6702;47.068;15.458;2023-03-23T00:42:52;11.40;83.90
13268;DHT22;6702;47.068;15.458;2023-03-23T00:45:54;11.30;84.20
13268;DHT22;6702;47.068;15.458;2023-03-23T00:48:58;11.20;84.70
13268;DHT22;6702;47.068;15.458;2023-03-23T00:52:00;11.20;84.90
13268;DHT22;6702;47.068;15.458;2023-03-23T00:55:03;11.20;85.30
13268;DHT22;6702;47.068;15.458;2023-03-23T00:58:05;11.10;85.80
13268;DHT22;6702;47.068;15.458;2023-03-23T01:01:08;11.10;86.20
13268;DHT22;6702;47.068;15.458;2023-03-23T01:04:12;11.10;87.00
13268;DHT22;6702;47.068;15.458;2023-03-23T01:07:15;11.20;88.80
13268;DHT22;6702;47.068;15.458;2023-03-23T01:10:18;11.10;89.10
13268;DHT22;6702;47.068;15.458;2023-03-23T01:13:20;11.10;89.90
13268;DHT22;6702;47.068;15.458;2023-03-23T01:16:23;11.10;90.20
13268;DHT22;6702;47.068;15.458;2023-03-23T01:19:27;11.10;90.30
13268;DHT22;6702;47.068;15.458;2023-03-23T01:22:29;11.10;90.40
13268;DHT22;6702;47.068;15.458;2023-03-23T01:25:34;11.10;90.50
13268;DHT22;6702;47.068;15.458;2023-03-23T01:28:37;11.10;90.50
13268;DHT22;6702;47.068;15.458;2023-03-23T01:31:40;11.00;90.50
13268;DHT22;6702;47.068;15.458;2023-03-23T01:34:44;11.00;90.70
13268;DHT22;6702;47.068;15.458;2023-03-23T01:37:46;11.00;91.00
13268;DHT22;6702;47.068;15.458;2023-03-23T01:40:49;10.90;91.10
13268;DHT22;6702;47.068;15.458;2023-03-23T01:43:55;10.90;91.10
13268;DHT22;6702;47.068;15.458;2023-03-23T01:46:58;10.90;91.20
13268;DHT22;6702;47.068;15.458;2023-03-23T01:50:01;10.90;91.20
13268;DHT22;6702;47.068;15.458;2023-03-23T01:53:05;10.80;91.30
13268;DHT22;6702;47.068;15.458;2023-03-23T01:56:09;10.80;91.50
13268;DHT22;6702;47.068;15.458;2023-03-23T01:59:13;10.70;91.60
13268;DHT22;6702;47.068;15.458;2023-03-23T02:02:16;10.70;91.80
13268;DHT22;6702;47.068;15.458;2023-03-23T02:05:24;10.70;91.90
13268;DHT22;6702;47.068;15.458;2023-03-23T02:08:29;10.70;92.10
13268;DHT22;6702;47.068;15.458;2023-03-23T02:11:33;10.70;92.50
13268;DHT22;6702;47.068;15.458;2023-03-23T02:14:35;10.60;92.10
13268;DHT22;6702;47.068;15.458;2023-03-23T02:17:42;10.60;92.30
13268;DHT22;6702;47.068;15.458;2023-03-23T02:21:05;10.50;92.30
13268;DHT22;6702;47.068;15.458;2023-03-23T02:28:00;10.40;92.40
13268;DHT22;6702;47.068;15.458;2023-03-23T02:31:29;10.40;92.70
13268;DHT22;6702;47.068;15.458;2023-03-23T02:34:41;10.30;92.70
13268;DHT22;6702;47.068;15.458;2023-03-23T02:37:47;10.30;92.70
13268;DHT22;6702;47.068;15.458;2023-03-23T02:40:51;10.20;92.90
13268;DHT22;6702;47.068;15.458;2023-03-23T02:43:55;10.10;93.10
13268;DHT22;6702;47.068;15.458;2023-03-23T02:47:00;10.10;93.30
13268;DHT22;6702;47.068;15.458;2023-03-23T02:50:08;10.10;93.40
13268;DHT22;6702;47.068;15.458;2023-03-23T02:53:14;10.10;93.60
13268;DHT22;6702;47.068;15.458;2023-03-23T02:56:19;10.00;93.70
13268;DHT22;6702;47.068;15.458;2023-03-23T02:59:22;10.00;93.80
13268;DHT22;6702;47.068;15.458;2023-03-23T03:02:26;10.00;93.80
13268;DHT22;6702;47.068;15.458;2023-03-23T03:05:35;9.90;94.40
13268;DHT22;6702;47.068;15.458;2023-03-23T03:08:46;9.90;94.50
13268;DHT22;6702;47.068;15.458;2023-03-23T03:11:55;9.90;94.70
13268;DHT22;6702;47.068;15.458;2023-03-23T03:15:06;9.90;94.80
13268;DHT22;6702;47.068;15.458;2023-03-23T03:18:16;9.90;94.90
13268;DHT22;6702;47.068;15.458;2023-03-23T03:21:26;9.90;94.90
13268;DHT22;6702;47.068;15.458;2023-03-23T03:24:30;9.90;94.90
13268;DHT22;6702;47.068;15.458;2023-03-23T03:27:33;9.70;95.00
13268;DHT22;6702;47.068;15.458;2023-03-23T03:30:36;9.80;95.30
13268;DHT22;6702;47.068;15.458;2023-03-23T03:33:38;9.70;95.20
13268;DHT22;6702;47.068;15.458;2023-03-23T03:36:42;9.60;95.20
13268;DHT22;6702;47.068;15.458;2023-03-23T03:39:46;9.60;95.40
13268;DHT22;6702;47.068;15.458;2023-03-23T03:42:48;9.60;95.50
13268;DHT22;6702;47.068;15.458;2023-03-23T03:45:50;9.60;95.50
13268;DHT22;6702;47.068;15.458;2023-03-23T03:48:52;9.50;95.70
13268;DHT22;6702;47.068;15.458;2023-03-23T03:51:55;9.50;95.90
13268;DHT22;6702;47.068;15.458;2023-03-23T03:54:57;9.50;95.90
13268;DHT22;6702;47.068;15.458;2023-03-23T03:57:59;9.50;95.90
13268;DHT22;6702;47.068;15.458;2023-03-23T04:01:02;9.50;96.00
13268;DHT22;6702;47.068;15.458;2023-03-23T04:04:05;9.50;96.10
13268;DHT22;6702;47.068;15.458;2023-03-23T04:07:09;9.40;96.00
13268;DHT22;6702;47.068;15.458;2023-03-23T04:10:14;9.40;96.10
13268;DHT22;6702;47.068;15.458;2023-03-23T04:13:17;9.40;96.10
13268;DHT22;6702;47.068;15.458;2023-03-23T04:16:19;9.40;96.10
13268;DHT22;6702;47.068;15.458;2023-03-23T04:19:21;9.40;96.20
13268;DHT22;6702;47.068;15.458;2023-03-23T04:22:25;9.40;96.40
13268;DHT22;6702;47.068;15.458;2023-03-23T04:25:30;9.30;96.40
13268;DHT22;6702;47.068;15.458;2023-03-23T04:28:34;9.30;96.50
13268;DHT22;6702;47.068;15.458;2023-03-23T04:31:36;9.30;96.50
13268;DHT22;6702;47.068;15.458;2023-03-23T04:34:39;9.20;96.60
13268;DHT22;6702;47.068;15.458;2023-03-23T04:37:43;9.20;96.70
13268;DHT22;6702;47.068;15.458;2023-03-23T04:40:45;9.20;96.70
13268;DHT22;6702;47.068;15.458;2023-03-23T04:43:47;9.20;96.80
13268;DHT22;6702;47.068;15.458;2023-03-23T04:46:53;9.10;96.70
13268;DHT22;6702;47.068;15.458;2023-03-23T04:49:56;9.10;96.70
13268;DHT22;6702;47.068;15.458;2023-03-23T04:53:00;9.10;96.90
13268;DHT22;6702;47.068;15.458;2023-03-23T04:56:04;9.10;97.00
13268;DHT22;6702;47.068;15.458;2023-03-23T04:59:07;9.10;97.10
13268;DHT22;6702;47.068;15.458;2023-03-23T05:02:09;9.10;97.30
13268;DHT22;6702;47.068;15.458;2023-03-23T05:05:13;9.00;97.40
13268;DHT22;6702;47.068;15.458;2023-03-23T05:08:16;9.10;97.60
13268;DHT22;6702;47.068;15.458;2023-03-23T05:11:18;9.10;97.70
13268;DHT22;6702;47.068;15.458;2023-03-23T05:14:20;9.20;97.70
13268;DHT22;6702;47.068;15.458;2023-03-23T05:17:23;9.10;97.80
13268;DHT22;6702;47.068;15.458;2023-03-23T05:20:25;9.20;97.80
13268;DHT22;6702;47.068;15.458;2023-03-23T05:23:30;9.20;97.90
13268;DHT22;6702;47.068;15.458;2023-03-23T05:26:34;9.30;97.90
13268;DHT22;6702;47.068;15.458;2023-03-23T05:29:37;9.30;97.80
13268;DHT22;6702;47.068;15.458;2023-03-23T05:32:41;9.40;97.80
13268;DHT22;6702;47.068;15.458;2023-03-23T05:35:44;9.40;97.80
13268;DHT22;6702;47.068;15.458;2023-03-23T05:38:50;9.50;97.80
13268;DHT22;6702;47.068;15.458;2023-03-23T05:41:52;9.50;97.70
13268;DHT22;6702;47.068;15.458;2023-03-23T05:44:55;9.60;97.70
13268;DHT22;6702;47.068;15.458;2023-03-23T05:47:57;9.70;97.50
13268;DHT22;6702;47.068;15.458;2023-03-23T05:50:59;9.80;97.10
13268;DHT22;6702;47.068;15.458;2023-03-23T05:54:03;9.90;97.10
13268;DHT22;6702;47.068;15.458;2023-03-23T05:57:05;10.00;96.30
13268;DHT22;6702;47.068;15.458;2023-03-23T06:00:08;10.10;96.20
13268;DHT22;6702;47.068;15.458;2023-03-23T06:03:20;10.20;96.10
13268;DHT22;6702;47.068;15.458;2023-03-23T06:06:23;10.30;95.80
13268;DHT22;6702;47.068;15.458;2023-03-23T06:09:26;10.40;95.60
13268;DHT22;6702;47.068;15.458;2023-03-23T06:12:28;10.50;95.40
13268;DHT22;6702;47.068;15.458;2023-03-23T06:15:32;10.60;95.50
13268;DHT22;6702;47.068;15.458;2023-03-23T06:18:34;10.80;95.10
13268;DHT22;6702;47.068;15.458;2023-03-23T06:21:37;10.90;94.90
13268;DHT22;6702;47.068;15.458;2023-03-23T06:24:41;11.10;94.70
13268;DHT22;6702;47.068;15.458;2023-03-23T06:27:43;11.20;94.30
13268;DHT22;6702;47.068;15.458;2023-03-23T06:30:46;11.30;94.30
13268;DHT22;6702;47.068;15.458;2023-03-23T06:33:48;11.50;93.90
13268;DHT22;6702;47.068;15.458;2023-03-23T06:36:50;11.70;93.70
13268;DHT22;6702;47.068;15.458;2023-03-23T06:39:54;11.80;93.40
13268;DHT22;6702;47.068;15.458;2023-03-23T06:42:56;12.00;93.10
13268;DHT22;6702;47.068;15.458;2023-03-23T06:45:59;12.10;92.80
13268;DHT22;6702;47.068;15.458;2023-03-23T06:49:02;12.40;92.60
13268;DHT22;6702;47.068;15.458;2023-03-23T06:52:04;12.50;92.30
13268;DHT22;6702;47.068;15.458;2023-03-23T06:55:08;12.80;91.90
13268;DHT22;6702;47.068;15.458;2023-03-23T06:58:10;13.20;91.60
13268;DHT22;6702;47.068;15.458;2023-03-23T07:01:13;13.70;90.60
13268;DHT22;6702;47.068;15.458;2023-03-23T07:04:16;14.10;89.30
13268;DHT22;6702;47.068;15.458;2023-03-23T07:07:18;14.50;87.20
13268;DHT22;6702;47.068;15.458;2023-03-23T07:10:22;14.90;86.10
13268;DHT22;6702;47.068;15.458;2023-03-23T07:13:24;15.80;84.00
13268;DHT22;6702;47.068;15.458;2023-03-23T07:16:27;17.50;78.90
13268;DHT22;6702;47.068;15.458;2023-03-23T07:19:29;19.40;71.90
13268;DHT22;6702;47.068;15.458;2023-03-23T07:22:31;20.60;62.80
13268;DHT22;6702;47.068;15.458;2023-03-23T07:25:35;21.00;58.00
13268;DHT22;6702;47.068;15.458;2023-03-23T07:28:38;21.10;56.20
13268;DHT22;6702;47.068;15.458;2023-03-23T07:31:40;21.40;55.00
13268;DHT22;6702;47.068;15.458;2023-03-23T07:34:42;21.50;53.30
13268;DHT22;6702;47.068;15.458;2023-03-23T07:37:44;21.70;52.60
13268;DHT22;6702;47.068;15.458;2023-03-23T07:40:50;22.10;51.20
13268;DHT22;6702;47.068;15.458;2023-03-23T07:43:53;22.40;50.10
13268;DHT22;6702;47.068;15.458;2023-03-23T07:46:55;22.70;48.80
13268;DHT22;6702;47.068;15.458;2023-03-23T07:49:57;22.80;48.00
13268;DHT22;6702;47.068;15.458;2023-03-23T07:52:59;22.90;48.10
13268;DHT22;6702;47.068;15.458;2023-03-23T07:56:03;23.20;47.30
13268;DHT22;6702;47.068;15.458;2023-03-23T07:59:05;23.30;46.20
13268;DHT22;6702;47.068;15.458;2023-03-23T08:02:08;23.30;45.80
13268;DHT22;6702;47.068;15.458;2023-03-23T08:05:11;22.90;46.10
13268;DHT22;6702;47.068;15.458;2023-03-23T08:08:14;22.00;47.10
13268;DHT22;6702;47.068;15.458;2023-03-23T08:11:18;21.20;48.50
13268;DHT22;6702;47.068;15.458;2023-03-23T08:14:20;20.50;50.20
13268;DHT22;6702;47.068;15.458;2023-03-23T08:17:22;19.80;51.60
13268;DHT22;6702;47.068;15.458;2023-03-23T08:20:24;19.50;52.70
13268;DHT22;6702;47.068;15.458;2023-03-23T08:23:27;19.10;53.20
13268;DHT22;6702;47.068;15.458;2023-03-23T08:26:30;19.00;54.00
13268;DHT22;6702;47.068;15.458;2023-03-23T08:29:32;19.00;54.40
13268;DHT22;6702;47.068;15.458;2023-03-23T08:32:34;19.00;54.40
13268;DHT22;6702;47.068;15.458;2023-03-23T08:35:37;19.30;54.20
13268;DHT22;6702;47.068;15.458;2023-03-23T08:38:39;19.60;53.60
13268;DHT22;6702;47.068;15.458;2023-03-23T08:41:42;19.80;53.70
13268;DHT22;6702;47.068;15.458;2023-03-23T08:44:45;20.80;51.90
13268;DHT22;6702;47.068;15.458;2023-03-23T08:47:48;21.60;51.00
13268;DHT22;6702;47.068;15.458;2023-03-23T08:50:52;22.20;49.60
13268;DHT22;6702;47.068;15.458;2023-03-23T08:53:54;22.40;48.50
13268;DHT22;6702;47.068;15.458;2023-03-23T08:57:00;22.20;48.60
13268;DHT22;6702;47.068;15.458;2023-03-23T09:00:04;21.80;48.70
13268;DHT22;6702;47.068;15.458;2023-03-23T09:03:14;21.40;49.10
13268;DHT22;6702;47.068;15.458;2023-03-23T09:06:18;21.20;49.70
13268;DHT22;6702;47.068;15.458;2023-03-23T09:09:20;21.50;49.90
13268;DHT22;6702;47.068;15.458;2023-03-23T09:12:23;22.40;48.80
13268;DHT22;6702;47.068;15.458;2023-03-23T09:15:25;23.20;47.00
13268;DHT22;6702;47.068;15.458;2023-03-23T09:18:27;23.70;45.80
13268;DHT22;6702;47.068;15.458;2023-03-23T09:21:30;24.50;45.10
13268;DHT22;6702;47.068;15.458;2023-03-23T09:24:32;25.50;43.30
13268;DHT22;6702;47.068;15.458;2023-03-23T09:27:35;26.30;40.70
13268;DHT22;6702;47.068;15.458;2023-03-23T09:30:41;26.30;39.80
13268;DHT22;6702;47.068;15.458;2023-03-23T09:33:44;25.90;39.70
13268;DHT22;6702;47.068;15.458;2023-03-23T09:36:47;26.00;40.00
13268;DHT22;6702;47.068;15.458;2023-03-23T09:39:49;26.40;38.90
13268;DHT22;6702;47.068;15.458;2023-03-23T09:43:09;26.50;38.00
13268;DHT22;6702;47.068;15.458;2023-03-23T09:46:30;26.40;38.30
13268;DHT22;6702;47.068;15.458;2023-03-23T09:49:39;27.20;37.50
13268;DHT22;6702;47.068;15.458;2023-03-23T09:52:46;28.50;36.20
13268;DHT22;6702;47.068;15.458;2023-03-23T09:55:49;29.70;33.60
13268;DHT22;6702;47.068;15.458;2023-03-23T09:58:57;32.70;30.70
13268;DHT22;6702;47.068;15.458;2023-03-23T10:02:12;35.60;26.90
13268;DHT22;6702;47.068;15.458;2023-03-23T10:05:26;37.80;23.40
13268;DHT22;6702;47.068;15.458;2023-03-23T10:08:31;38.50;22.30
13268;DHT22;6702;47.068;15.458;2023-03-23T10:11:44;40.30;20.90
13268;DHT22;6702;47.068;15.458;2023-03-23T10:18:24;40.20;18.70
13268;DHT22;6702;47.068;15.458;2023-03-23T10:21:29;38.40;19.70
13268;DHT22;6702;47.068;15.458;2023-03-23T10:24:35;37.40;20.50
13268;DHT22;6702;47.068;15.458;2023-03-23T10:27:44;37.40;20.50
13268;DHT22;6702;47.068;15.458;2023-03-23T10:30:52;37.30;20.40
13268;DHT22;6702;47.068;15.458;2023-03-23T10:33:59;37.10;20.70
13268;DHT22;6702;47.068;15.458;2023-03-23T10:37:08;37.20;20.50
13268;DHT22;6702;47.068;15.458;2023-03-23T10:40:15;36.60;21.20
13268;DHT22;6702;47.068;15.458;2023-03-23T10:43:18;36.00;21.50
13268;DHT22;6702;47.068;15.458;2023-03-23T10:46:28;35.80;21.70
13268;DHT22;6702;47.068;15.458;2023-03-23T10:49:35;35.60;21.50
13268;DHT22;6702;47.068;15.458;2023-03-23T10:52:40;35.30;22.10
13268;DHT22;6702;47.068;15.458;2023-03-23T10:55:43;35.00;22.30
13268;DHT22;6702;47.068;15.458;2023-03-23T10:58:45;34.50;22.70
13268;DHT22;6702;47.068;15.458;2023-03-23T11:01:51;34.40;22.70
13268;DHT22;6702;47.068;15.458;2023-03-23T11:05:00;34.40;22.60
13268;DHT22;6702;47.068;15.458;2023-03-23T11:08:11;34.30;22.50
13268;DHT22;6702;47.068;15.458;2023-03-23T11:11:16;33.70;22.80
13268;DHT22;6702;47.068;15.458;2023-03-23T11:14:24;32.80;23.40
13268;DHT22;6702;47.068;15.458;2023-03-23T11:17:29;31.70;25.00
13268;DHT22;6702;47.068;15.458;2023-03-23T11:20:35;31.40;24.70
13268;DHT22;6702;47.068;15.458;2023-03-23T11:23:40;31.20;25.10
13268;DHT22;6702;47.068;15.458;2023-03-23T11:26:44;31.40;25.30
13268;DHT22;6702;47.068;15.458;2023-03-23T11:29:50;31.40;25.30
13268;DHT22;6702;47.068;15.458;2023-03-23T11:32:59;30.30;25.50
13268;DHT22;6702;47.068;15.458;2023-03-23T11:36:03;29.50;26.40
13268;DHT22;6702;47.068;15.458;2023-03-23T11:39:20;28.40;27.70
13268;DHT22;6702;47.068;15.458;2023-03-23T11:42:24;27.40;28.60
13268;DHT22;6702;47.068;15.458;2023-03-23T11:45:33;26.70;29.50
13268;DHT22;6702;47.068;15.458;2023-03-23T11:48:43;25.70;31.00
13268;DHT22;6702;47.068;15.458;2023-03-23T11:51:49;25.00;32.30
13268;DHT22;6702;47.068;15.458;2023-03-23T11:54:59;24.40;33.50
13268;DHT22;6702;47.068;15.458;2023-03-23T11:58:11;24.40;33.80
13268;DHT22;6702;47.068;15.458;2023-03-23T12:01:24;25.10;33.60
13268;DHT22;6702;47.068;15.458;2023-03-23T12:05:10;26.00;31.70
13268;DHT22;6702;47.068;15.458;2023-03-23T12:08:30;26.90;29.70
13268;DHT22;6702;47.068;15.458;2023-03-23T12:11:50;27.80;29.20
13268;DHT22;6702;47.068;15.458;2023-03-23T12:15:01;28.70;28.40
13268;DHT22;6702;47.068;15.458;2023-03-23T12:18:10;29.30;27.90
13268;DHT22;6702;47.068;15.458;2023-03-23T12:21:23;29.50;27.80
13268;DHT22;6702;47.068;15.458;2023-03-23T12:24:40;29.90;27.60
13268;DHT22;6702;47.068;15.458;2023-03-23T12:27:48;30.20;27.10
13268;DHT22;6702;47.068;15.458;2023-03-23T12:30:57;30.10;27.30
13268;DHT22;6702;47.068;15.458;2023-03-23T12:34:09;30.40;27.10
13268;DHT22;6702;47.068;15.458;2023-03-23T12:37:29;30.40;26.90
13268;DHT22;6702;47.068;15.458;2023-03-23T12:40:44;29.40;27.70
13268;DHT22;6702;47.068;15.458;2023-03-23T12:43:52;28.60;29.00
13268;DHT22;6702;47.068;15.458;2023-03-23T12:47:10;28.60;28.90
13268;DHT22;6702;47.068;15.458;2023-03-23T12:50:20;28.40;29.40
13268;DHT22;6702;47.068;15.458;2023-03-23T12:53:29;27.90;30.00
13268;DHT22;6702;47.068;15.458;2023-03-23T12:56:34;27.60;30.50
13268;DHT22;6702;47.068;15.458;2023-03-23T12:59:41;27.70;31.10
13268;DHT22;6702;47.068;15.458;2023-03-23T13:02:52;28.20;30.00
13268;DHT22;6702;47.068;15.458;2023-03-23T13:06:00;28.20;30.00
13268;DHT22;6702;47.068;15.458;2023-03-23T13:09:11;28.10;30.20
13268;DHT22;6702;47.068;15.458;2023-03-23T13:12:16;27.70;30.30
13268;DHT22;6702;47.068;15.458;2023-03-23T13:15:28;27.20;31.10
13268;DHT22;6702;47.068;15.458;2023-03-23T13:18:40;26.40;32.20
13268;DHT22;6702;47.068;15.458;2023-03-23T13:21:47;26.40;32.70
13268;DHT22;6702;47.068;15.458;2023-03-23T13:24:55;26.40;32.80
13268;DHT22;6702;47.068;15.458;2023-03-23T13:27:59;26.40;32.80
13268;DHT22;6702;47.068;15.458;2023-03-23T13:31:03;26.20;32.80
13268;DHT22;6702;47.068;15.458;2023-03-23T13:34:12;26.10;33.10
13268;DHT22;6702;47.068;15.458;2023-03-23T13:37:23;26.30;33.00
13268;DHT22;6702;47.068;15.458;2023-03-23T13:40:29;25.90;33.10
13268;DHT22;6702;47.068;15.458;2023-03-23T13:43:35;25.40;34.20
13268;DHT22;6702;47.068;15.458;2023-03-23T13:46:38;25.00;35.50
13268;DHT22;6702;47.068;15.458;2023-03-23T13:49:46;24.80;35.10
13268;DHT22;6702;47.068;15.458;2023-03-23T13:52:52;24.70;35.50
13268;DHT22;6702;47.068;15.458;2023-03-23T13:56:13;24.40;35.80
13268;DHT22;6702;47.068;15.458;2023-03-23T13:59:32;24.20;36.20
13268;DHT22;6702;47.068;15.458;2023-03-23T14:02:37;24.00;36.40
13268;DHT22;6702;47.068;15.458;2023-03-23T14:05:41;23.70;36.70
13268;DHT22;6702;47.068;15.458;2023-03-23T14:08:47;23.70;37.00
13268;DHT22;6702;47.068;15.458;2023-03-23T14:11:56;23.70;36.60
13268;DHT22;6702;47.068;15.458;2023-03-23T14:15:01;23.50;36.50
13268;DHT22;6702;47.068;15.458;2023-03-23T14:18:05;23.60;36.40
13268;DHT22;6702;47.068;15.458;2023-03-23T14:21:15;23.30;36.30
13268;DHT22;6702;47.068;15.458;2023-03-23T14:24:20;23.10;37.70
13268;DHT22;6702;47.068;15.458;2023-03-23T14:27:27;23.00;37.20
13268;DHT22;6702;47.068;15.458;2023-03-23T14:30:36;22.60;37.70
13268;DHT22;6702;47.068;15.458;2023-03-23T14:33:38;22.60;37.90
13268;DHT22;6702;47.068;15.458;2023-03-23T14:36:43;22.40;37.80
13268;DHT22;6702;47.068;15.458;2023-03-23T14:39:46;22.30;37.70
13268;DHT22;6702;47.068;15.458;2023-03-23T14:42:51;22.30;37.70
13268;DHT22;6702;47.068;15.458;2023-03-23T14:45:57;22.40;37.60
13268;DHT22;6702;47.068;15.458;2023-03-23T14:49:01;22.20;37.30
13268;DHT22;6702;47.068;15.458;2023-03-23T14:52:09;22.20;37.50
13268;DHT22;6702;47.068;15.458;2023-03-23T14:55:13;22.30;37.00
13268;DHT22;6702;47.068;15.458;2023-03-23T14:58:19;22.30;36.90
13268;DHT22;6702;47.068;15.458;2023-03-23T15:01:24;22.40;37.20
13268;DHT22;6702;47.068;15.458;2023-03-23T15:04:28;22.30;36.70
13268;DHT22;6702;47.068;15.458;2023-03-23T15:07:33;22.20;36.30
13268;DHT22;6702;47.068;15.458;2023-03-23T15:10:36;22.20;37.10
13268;DHT22;6702;47.068;15.458;2023-03-23T15:13:44;22.10;36.40
13268;DHT22;6702;47.068;15.458;2023-03-23T15:16:47;22.20;36.40
13268;DHT22;6702;47.068;15.458;2023-03-23T15:19:51;22.20;36.30
13268;DHT22;6702;47.068;15.458;2023-03-23T15:22:54;22.10;36.30
13268;DHT22;6702;47.068;15.458;2023-03-23T15:25:57;22.00;36.50
13268;DHT22;6702;47.068;15.458;2023-03-23T15:29:14;21.90;36.70
13268;DHT22;6702;47.068;15.458;2023-03-23T15:32:26;22.00;37.00
13268;DHT22;6702;47.068;15.458;2023-03-23T15:35:34;22.00;37.20
13268;DHT22;6702;47.068;15.458;2023-03-23T15:38:37;22.00;37.10
13268;DHT22;6702;47.068;15.458;2023-03-23T15:41:46;21.90;37.20
13268;DHT22;6702;47.068;15.458;2023-03-23T15:44:57;21.90;37.40
13268;DHT22;6702;47.068;15.458;2023-03-23T15:48:10;21.80;37.10
13268;DHT22;6702;47.068;15.458;2023-03-23T15:51:13;21.80;37.20
13268;DHT22;6702;47.068;15.458;2023-03-23T15:54:16;21.90;37.40
13268;DHT22;6702;47.068;15.458;2023-03-23T15:57:18;21.90;37.60
13268;DHT22;6702;47.068;15.458;2023-03-23T16:00:23;21.80;37.70
13268;DHT22;6702;47.068;15.458;2023-03-23T16:03:29;21.90;38.00
13268;DHT22;6702;47.068;15.458;2023-03-23T16:06:34;21.80;38.30
13268;DHT22;6702;47.068;15.458;2023-03-23T16:09:38;21.70;38.50
13268;DHT22;6702;47.068;15.458;2023-03-23T16:12:43;21.70;39.10
13268;DHT22;6702;47.068;15.458;2023-03-23T16:15:48;21.60;39.40
13268;DHT22;6702;47.068;15.458;2023-03-23T16:18:52;21.60;39.40
13268;DHT22;6702;47.068;15.458;2023-03-23T16:21:56;21.60;39.50
13268;DHT22;6702;47.068;15.458;2023-03-23T16:24:59;21.60;39.60
13268;DHT22;6702;47.068;15.458;2023-03-23T16:28:03;21.50;39.70
13268;DHT22;6702;47.068;15.458;2023-03-23T16:31:07;21.40;40.00
13268;DHT22;6702;47.068;15.458;2023-03-23T16:34:11;21.30;40.10
13268;DHT22;6702;47.068;15.458;2023-03-23T16:37:14;21.20;40.30
13268;DHT22;6702;47.068;15.458;2023-03-23T16:40:19;21.10;40.40
13268;DHT22;6702;47.068;15.458;2023-03-23T16:43:22;21.10;40.50
13268;DHT22;6702;47.068;15.458;2023-03-23T16:46:27;21.00;40.60
13268;DHT22;6702;47.068;15.458;2023-03-23T16:49:31;21.00;40.80
13268;DHT22;6702;47.068;15.458;2023-03-23T16:52:34;20.90;41.00
13268;DHT22;6702;47.068;15.458;2023-03-23T16:55:49;20.90;41.20
13268;DHT22;6702;47.068;15.458;2023-03-23T16:58:52;20.70;41.60
13268;DHT22;6702;47.068;15.458;2023-03-23T17:01:57;20.70;41.80
13268;DHT22;6702;47.068;15.458;2023-03-23T17:05:05;20.50;42.10
13268;DHT22;6702;47.068;15.458;2023-03-23T17:08:08;20.50;42.30
13268;DHT22;6702;47.068;15.458;2023-03-23T17:11:12;20.40;42.80
13268;DHT22;6702;47.068;15.458;2023-03-23T17:14:15;20.30;43.30
13268;DHT22;6702;47.068;15.458;2023-03-23T17:17:20;20.10;43.80
13268;DHT22;6702;47.068;15.458;2023-03-23T17:20:25;20.00;43.80
13268;DHT22;6702;47.068;15.458;2023-03-23T17:23:28;19.90;44.00
13268;DHT22;6702;47.068;15.458;2023-03-23T17:26:33;19.80;44.40
13268;DHT22;6702;47.068;15.458;2023-03-23T17:29:38;19.70;44.80
13268;DHT22;6702;47.068;15.458;2023-03-23T17:32:43;19.70;44.90
13268;DHT22;6702;47.068;15.458;2023-03-23T17:35:48;19.50;45.30
13268;DHT22;6702;47.068;15.458;2023-03-23T17:38:53;19.40;45.80
13268;DHT22;6702;47.068;15.458;2023-03-23T17:41:57;19.30;46.60
13268;DHT22;6702;47.068;15.458;2023-03-23T17:45:01;19.20;46.90
13268;DHT22;6702;47.068;15.458;2023-03-23T17:48:06;19.20;47.40
13268;DHT22;6702;47.068;15.458;2023-03-23T17:51:10;19.00;47.60
13268;DHT22;6702;47.068;15.458;2023-03-23T17:54:13;19.00;48.50
13268;DHT22;6702;47.068;15.458;2023-03-23T17:57:18;18.90;49.20
13268;DHT22;6702;47.068;15.458;2023-03-23T18:00:22;18.70;49.70
13268;DHT22;6702;47.068;15.458;2023-03-23T18:03:29;18.60;50.10
13268;DHT22;6702;47.068;15.458;2023-03-23T18:06:33;18.60;50.60
13268;DHT22;6702;47.068;15.458;2023-03-23T18:09:39;18.50;51.00
13268;DHT22;6702;47.068;15.458;2023-03-23T18:12:48;18.40;51.20
13268;DHT22;6702;47.068;15.458;2023-03-23T18:15:53;18.30;51.60
13268;DHT22;6702;47.068;15.458;2023-03-23T18:18:59;18.20;52.10
13268;DHT22;6702;47.068;15.458;2023-03-23T18:22:03;18.20;53.10
13268;DHT22;6702;47.068;15.458;2023-03-23T18:25:07;18.10;52.90
13268;DHT22;6702;47.068;15.458;2023-03-23T18:28:11;17.90;53.10
13268;DHT22;6702;47.068;15.458;2023-03-23T18:31:16;17.90;53.40
13268;DHT22;6702;47.068;15.458;2023-03-23T18:34:23;17.80;53.60
13268;DHT22;6702;47.068;15.458;2023-03-23T18:37:27;17.80;54.00
13268;DHT22;6702;47.068;15.458;2023-03-23T18:40:35;17.70;54.20
13268;DHT22;6702;47.068;15.458;2023-03-23T18:43:40;17.70;54.50
13268;DHT22;6702;47.068;15.458;2023-03-23T18:46:46;17.60;55.40
13268;DHT22;6702;47.068;15.458;2023-03-23T18:49:52;17.50;55.00
13268;DHT22;6702;47.068;15.458;2023-03-23T18:52:57;17.40;55.20
13268;DHT22;6702;47.068;15.458;2023-03-23T18:56:04;17.40;55.60
13268;DHT22;6702;47.068;15.458;2023-03-23T18:59:11;17.30;55.80
13268;DHT22;6702;47.068;15.458;2023-03-23T19:02:16;17.20;56.00
13268;DHT22;6702;47.068;15.458;2023-03-23T19:05:24;17.10;56.20
13268;DHT22;6702;47.068;15.458;2023-03-23T19:08:30;17.10;56.50
13268;DHT22;6702;47.068;15.458;2023-03-23T19:11:36;17.00;56.90
13268;DHT22;6702;47.068;15.458;2023-03-23T19:14:40;16.90;57.20
13268;DHT22;6702;47.068;15.458;2023-03-23T19:17:46;16.80;57.60
13268;DHT22;6702;47.068;15.458;2023-03-23T19:20:58;16.70;57.80
13268;DHT22;6702;47.068;15.458;2023-03-23T19:24:07;16.70;58.10
13268;DHT22;6702;47.068;15.458;2023-03-23T19:27:12;16.60;58.40
13268;DHT22;6702;47.068;15.458;2023-03-23T19:30:17;16.50;58.70
13268;DHT22;6702;47.068;15.458;2023-03-23T19:33:23;16.40;58.90
13268;DHT22;6702;47.068;15.458;2023-03-23T19:36:30;16.40;59.10
13268;DHT22;6702;47.068;15.458;2023-03-23T19:39:34;16.30;59.50
13268;DHT22;6702;47.068;15.458;2023-03-23T19:42:40;16.30;59.60